Time;durP1;ratioP1;P1;durP2;ratioP2;P2;SDS_P1;SDS_P2;PMS_P1;PMS_P2;Temp;Humidity;BMP_temperature;BMP_pressure;BME280_temperature;BME280_humidity;BME280_pressure;Samples;Min_cycle;Max_cycle;Signal;HPM_P1;HPM_P2
2022/12/28 00:01:45;;;;;;;2.88;1.45;;;3.90;87.50;;;;;;5048695;28;20127;-70
2022/12/28 00:04:14;;;;;;;4.57;1.20;;;3.90;87.60;;;;;;5057323;28;20080;-69
2022/12/28 00:06:49;;;;;;;3.28;1.50;;;3.90;87.60;;;;;;5055434;28;20045;-69
2022/12/28 00:09:16;;;;;;;2.95;1.70;;;3.90;87.60;;;;;;5058777;28;20048;-69
2022/12/28 00:11:43;;;;;;;4.78;1.60;;;3.90;87.60;;;;;;5052068;28;20237;-68
2022/12/28 00:14:10;;;;;;;7.82;2.03;;;3.90;87.60;;;;;;5047275;28;20060;-69
2022/12/28 00:16:42;;;;;;;5.55;2.60;;;4.00;87.50;;;;;;5052423;28;20052;-69
2022/12/28 00:19:13;;;;;;;9.38;3.03;;;4.00;87.50;;;;;;5054188;28;20049;-69
2022/12/28 00:21:41;;;;;;;6.20;2.85;;;4.00;87.30;;;;;;5054180;28;20049;-71
2022/12/28 00:24:19;;;;;;;6.53;2.78;;;4.00;87.50;;;;;;5054738;28;20052;-72
2022/12/28 00:26:46;;;;;;;5.63;3.00;;;4.00;87.50;;;;;;5056756;28;20578;-69
2022/12/28 00:29:13;;;;;;;9.23;3.30;;;4.00;87.60;;;;;;5054417;28;20057;-69
2022/12/28 00:31:40;;;;;;;9.35;3.38;;;4.00;87.60;;;;;;5051453;28;20052;-70
2022/12/28 00:34:07;;;;;;;8.70;3.45;;;4.00;87.60;;;;;;5038452;28;20059;-70
2022/12/28 00:36:35;;;;;;;6.13;3.30;;;4.00;87.70;;;;;;5054263;28;20070;-68
2022/12/28 00:39:03;;;;;;;7.65;3.72;;;4.00;87.70;;;;;;5038601;28;20044;-69
2022/12/28 00:41:30;;;;;;;8.93;3.45;;;4.00;87.80;;;;;;5056156;28;20045;-68
2022/12/28 00:43:56;;;;;;;9.07;3.58;;;4.00;87.80;;;;;;5054146;28;20502;-67
2022/12/28 00:46:25;;;;;;;8.35;3.70;;;4.00;87.80;;;;;;5049272;28;20187;-68
2022/12/28 00:48:53;;;;;;;6.75;3.10;;;4.00;87.70;;;;;;5049174;28;20060;-66
2022/12/28 00:51:20;;;;;;;9.10;3.15;;;4.00;87.80;;;;;;5056945;28;20490;-61
2022/12/28 00:53:48;;;;;;;7.20;2.85;;;4.00;87.90;;;;;;5054520;28;20044;-63
2022/12/28 00:56:18;;;;;;;6.40;3.05;;;4.00;87.90;;;;;;5055280;28;20052;-69
2022/12/28 00:58:45;;;;;;;7.70;3.10;;;4.00;87.80;;;;;;5055339;28;20053;-70
2022/12/28 01:01:14;;;;;;;5.78;2.65;;;4.00;87.80;;;;;;5050596;28;20053;-69
2022/12/28 01:03:42;;;;;;;8.00;3.03;;;4.10;87.80;;;;;;5055347;28;20057;-68
2022/12/28 01:06:11;;;;;;;7.95;3.25;;;4.10;87.80;;;;;;5034182;28;20109;-67
2022/12/28 01:08:38;;;;;;;7.30;3.50;;;4.10;87.80;;;;;;5056163;28;20049;-66
2022/12/28 01:11:08;;;;;;;7.78;3.85;;;4.10;87.90;;;;;;5055418;28;20071;-70
2022/12/28 01:13:36;;;;;;;8.23;4.22;;;4.10;87.90;;;;;;5052947;28;20036;-68
2022/12/28 01:16:10;;;;;;;8.18;3.65;;;4.10;87.90;;;;;;5055696;28;20048;-70
2022/12/28 01:18:37;;;;;;;7.13;3.70;;;4.10;87.90;;;;;;5050996;28;20049;-70
2022/12/28 01:21:09;;;;;;;9.05;4.75;;;4.10;88.00;;;;;;5058281;28;20041;-60
2022/12/28 01:23:36;;;;;;;9.32;4.22;;;4.10;88.00;;;;;;5050795;28;20052;-58
2022/12/28 01:26:03;;;;;;;10.68;3.97;;;4.10;88.00;;;;;;5059126;28;20044;-58
2022/12/28 01:28:31;;;;;;;8.20;4.13;;;4.10;88.00;;;;;;5052281;28;20049;-59
2022/12/28 01:31:03;;;;;;;8.60;4.57;;;4.10;88.10;;;;;;5050449;28;20056;-58
2022/12/28 01:33:30;;;;;;;8.82;4.30;;;4.10;88.10;;;;;;5055028;28;20407;-59
2022/12/28 01:35:57;;;;;;;12.07;4.70;;;4.20;88.00;;;;;;5058309;28;20045;-62
2022/12/28 01:38:24;;;;;;;9.63;4.22;;;4.20;87.90;;;;;;5050125;28;20040;-64
2022/12/28 01:40:51;;;;;;;10.20;4.47;;;4.10;88.00;;;;;;5052064;28;20048;-62
2022/12/28 01:43:18;;;;;;;7.03;3.72;;;4.20;88.10;;;;;;5035805;28;20052;-61
2022/12/28 01:45:51;;;;;;;8.45;4.00;;;4.20;87.90;;;;;;5052631;28;20049;-63
2022/12/28 01:48:22;;;;;;;7.63;4.25;;;4.20;87.90;;;;;;5037187;28;20080;-61
2022/12/28 01:50:49;;;;;;;10.20;4.32;;;4.20;88.00;;;;;;5048761;28;20056;-62
2022/12/28 01:53:20;;;;;;;9.40;4.20;;;4.20;88.10;;;;;;5033660;28;20502;-61
2022/12/28 01:55:47;;;;;;;9.40;4.03;;;4.10;88.20;;;;;;5056539;28;20065;-66
2022/12/28 01:58:19;;;;;;;10.52;4.28;;;4.10;88.20;;;;;;5035981;28;20479;-66
2022/12/28 02:00:47;;;;;;;9.45;4.00;;;4.20;88.20;;;;;;5056809;28;20053;-59
2022/12/28 02:03:17;;;;;;;8.45;3.88;;;4.10;88.20;;;;;;5054602;28;20044;-60
2022/12/28 02:05:49;;;;;;;7.47;3.88;;;4.10;88.20;;;;;;5053165;28;20063;-60
2022/12/28 02:08:22;;;;;;;7.88;3.80;;;4.10;88.20;;;;;;5053358;28;20045;-59
2022/12/28 02:10:51;;;;;;;7.05;3.63;;;4.10;88.20;;;;;;5021749;28;20048;-59
2022/12/28 02:13:19;;;;;;;8.80;3.63;;;4.10;88.30;;;;;;5046899;28;20041;-60
2022/12/28 02:15:47;;;;;;;6.78;3.40;;;4.20;88.20;;;;;;5051301;28;20046;-67
2022/12/28 02:18:16;;;;;;;7.00;3.60;;;4.20;88.30;;;;;;5038533;28;20045;-68
2022/12/28 02:20:56;;;;;;;6.90;3.33;;;4.20;88.20;;;;;;5053515;28;20071;-69
2022/12/28 02:23:38;;;;;;;8.18;3.00;;;4.20;88.20;;;;;;5054230;28;20581;-68
2022/12/28 02:26:33;;;;;;;6.60;3.30;;;4.20;88.20;;;;;;5054694;28;20040;-60
2022/12/28 02:29:35;;;;;;;7.90;3.47;;;4.30;88.20;;;;;;5055283;28;20399;-59
2022/12/28 02:32:14;;;;;;;8.77;3.40;;;4.30;88.50;;;;;;5047937;28;20048;-62
2022/12/28 02:34:47;;;;;;;6.47;3.00;;;4.30;88.40;;;;;;5054695;28;20991;-61
2022/12/28 02:37:20;;;;;;;7.53;2.97;;;4.30;88.50;;;;;;5056879;28;20483;-62
2022/12/28 02:39:51;;;;;;;7.97;3.15;;;4.30;88.40;;;;;;5056630;28;20049;-62
2022/12/28 02:42:20;;;;;;;7.75;3.30;;;4.40;88.50;;;;;;5033411;28;20060;-59
2022/12/28 02:50:20;;;;;;;8.20;3.03;;;4.40;88.60;;;;;;5068121;28;20061;-62
2022/12/28 02:53:16;;;;;;;8.23;3.17;;;4.50;88.50;;;;;;5070033;28;20055;-62
2022/12/28 02:56:06;;;;;;;6.07;2.83;;;4.50;88.50;;;;;;5071945;28;20060;-68
2022/12/28 02:58:58;;;;;;;5.65;2.67;;;4.60;88.50;;;;;;5070766;28;20063;-68
2022/12/28 03:01:45;;;;;;;5.00;2.28;;;4.60;88.70;;;;;;5071555;28;20961;-60
2022/12/28 03:04:18;;;;;;;4.38;2.35;;;4.60;88.50;;;;;;5070433;28;20118;-59
2022/12/28 03:09:41;;;;;;;7.27;2.80;;;4.60;88.30;;;;;;5067904;28;20066;-62
2022/12/28 03:12:12;;;;;;;4.13;2.15;;;4.70;88.40;;;;;;5060991;28;20145;-61
2022/12/28 03:14:42;;;;;;;;;;;4.70;88.40;;;;;;5053055;28;20407;-62
2022/12/28 03:31:27;;;;;;;7.18;2.20;;;5.00;88.80;;;;;;5043024;28;20044;-62
2022/12/28 03:34:06;;;;;;;6.68;1.80;;;5.00;88.80;;;;;;5046462;28;20048;-61
2022/12/28 03:36:44;;;;;;;5.47;2.13;;;5.00;88.70;;;;;;5046038;28;20060;-62
2022/12/28 03:39:22;;;;;;;4.63;1.80;;;5.10;88.90;;;;;;5053336;28;20074;-62
2022/12/28 03:44:42;;;;;;;4.18;1.83;;;5.10;88.80;;;;;;5069650;28;20422;-61
2022/12/28 03:47:12;;;;;;;4.97;1.73;;;5.10;88.70;;;;;;5051809;28;20098;-62
2022/12/28 03:49:41;;;;;;;6.20;1.90;;;5.20;88.70;;;;;;5070432;28;20068;-62
2022/12/28 03:52:11;;;;;;;5.65;1.83;;;5.20;88.70;;;;;;5047135;28;20056;-62
2022/12/28 03:54:40;;;;;;;6.75;1.90;;;5.20;88.60;;;;;;5047057;28;20088;-61
2022/12/28 03:57:12;;;;;;;3.60;1.63;;;5.20;88.70;;;;;;5052143;28;20043;-61
2022/12/28 03:59:42;;;;;;;3.70;1.42;;;5.20;88.70;;;;;;5051231;28;20090;-61
2022/12/28 04:02:09;;;;;;;4.75;1.70;;;5.30;88.60;;;;;;5051007;28;20159;-63
2022/12/28 04:04:36;;;;;;;6.35;1.73;;;5.30;88.60;;;;;;5051572;28;20136;-63
2022/12/28 04:07:05;;;;;;;3.60;1.83;;;5.30;88.50;;;;;;5068814;28;20045;-61
2022/12/28 04:09:32;;;;;;;5.32;1.83;;;5.40;88.50;;;;;;5065585;28;20052;-58
2022/12/28 04:12:00;;;;;;;3.38;1.70;;;5.40;88.50;;;;;;5048522;28;20487;-59
2022/12/28 04:14:52;;;;;;;4.63;1.60;;;5.40;88.40;;;;;;5067133;28;20131;-63
2022/12/28 04:17:19;;;;;;;6.45;2.10;;;5.40;88.40;;;;;;5068597;28;20044;-60
2022/12/28 04:19:46;;;;;;;3.92;1.70;;;5.30;88.30;;;;;;5047544;28;20052;-58
2022/12/28 04:22:14;;;;;;;4.95;1.77;;;5.40;88.40;;;;;;5067536;28;20044;-59
2022/12/28 04:24:41;;;;;;;5.05;1.90;;;5.40;88.40;;;;;;5050076;28;20041;-60
2022/12/28 04:27:08;;;;;;;4.50;1.88;;;5.40;88.50;;;;;;5047619;28;20056;-60
2022/12/28 04:29:35;;;;;;;4.78;1.92;;;5.40;88.60;;;;;;5045866;28;20052;-59
2022/12/28 04:32:09;;;;;;;4.45;1.63;;;5.40;88.50;;;;;;5049858;28;20047;-59
2022/12/28 04:34:35;;;;;;;6.45;1.85;;;5.40;88.60;;;;;;5047850;28;20059;-60
2022/12/28 04:37:07;;;;;;;5.22;1.65;;;5.40;88.50;;;;;;5050593;28;20142;-59
2022/12/28 04:39:38;;;;;;;5.88;1.60;;;5.40;88.50;;;;;;5048418;28;20068;-59
2022/12/28 04:42:05;;;;;;;6.90;1.98;;;5.40;88.30;;;;;;5069211;28;20040;-62
2022/12/28 04:44:32;;;;;;;2.38;1.33;;;5.50;88.30;;;;;;5069928;28;20052;-62
2022/12/28 04:46:59;;;;;;;3.83;1.52;;;5.50;88.40;;;;;;5068803;28;20050;-62
2022/12/28 04:49:26;;;;;;;3.72;1.52;;;5.50;88.40;;;;;;5070083;28;20059;-62
2022/12/28 04:51:53;;;;;;;4.57;1.60;;;5.50;88.40;;;;;;5067919;28;20033;-64
2022/12/28 04:54:20;;;;;;;6.35;2.03;;;5.60;88.30;;;;;;5069026;28;20048;-64
2022/12/28 04:56:48;;;;;;;4.70;1.55;;;5.60;88.30;;;;;;5068923;28;20044;-64
2022/12/28 04:59:15;;;;;;;4.45;1.50;;;5.60;88.20;;;;;;5067833;28;20048;-65
2022/12/28 05:01:42;;;;;;;3.83;1.73;;;5.60;88.20;;;;;;5064357;28;20791;-67
2022/12/28 05:04:09;;;;;;;6.10;1.50;;;5.60;88.20;;;;;;5066798;28;20491;-70
2022/12/28 05:06:35;;;;;;;6.55;1.70;;;5.60;88.20;;;;;;5068280;28;20114;-67
2022/12/28 05:09:02;;;;;;;4.57;2.15;;;5.60;88.10;;;;;;5064464;28;20051;-67
2022/12/28 05:11:30;;;;;;;5.05;2.17;;;5.70;88.10;;;;;;5066331;28;20148;-65
2022/12/28 05:13:59;;;;;;;3.22;1.63;;;5.70;88.00;;;;;;5062411;28;20080;-67
2022/12/28 05:16:27;;;;;;;4.68;1.80;;;5.70;88.10;;;;;;5066662;28;20057;-67
2022/12/28 05:18:56;;;;;;;2.90;1.50;;;5.70;88.00;;;;;;5068423;28;20045;-65
2022/12/28 05:21:24;;;;;;;4.38;1.85;;;5.70;88.00;;;;;;5064538;28;20052;-66
2022/12/28 05:23:52;;;;;;;3.13;1.48;;;5.70;88.10;;;;;;5067137;28;20037;-66
2022/12/28 05:26:20;;;;;;;3.58;1.70;;;5.70;88.20;;;;;;5067141;28;20094;-67
2022/12/28 05:28:48;;;;;;;4.22;1.73;;;5.70;88.10;;;;;;5068077;28;20037;-66
2022/12/28 05:31:18;;;;;;;3.03;1.30;;;5.70;88.20;;;;;;5067648;28;20048;-66
2022/12/28 05:33:46;;;;;;;;;;;5.70;88.20;;;;;;5065669;28;20063;-66
2022/12/28 05:36:15;;;;;;;3.42;1.33;;;5.70;88.20;;;;;;5068366;28;20015;-65
2022/12/28 05:38:42;;;;;;;3.50;1.55;;;5.70;88.20;;;;;;5063867;28;20058;-65
2022/12/28 05:41:12;;;;;;;5.53;1.65;;;5.70;88.20;;;;;;5064984;28;20049;-66
2022/12/28 05:43:39;;;;;;;3.47;1.65;;;5.80;88.20;;;;;;5066003;28;20484;-66
2022/12/28 05:46:12;;;;;;;4.03;2.60;;;5.80;88.10;;;;;;5065563;28;20103;-68
2022/12/28 05:48:42;;;;;;;4.63;1.77;;;5.80;88.10;;;;;;5068105;28;20049;-67
2022/12/28 05:51:12;;;;;;;5.82;1.70;;;5.80;88.10;;;;;;5068366;28;20040;-67
2022/12/28 05:53:39;;;;;;;5.10;1.98;;;5.80;88.10;;;;;;5067856;28;20506;-67
2022/12/28 05:56:08;;;;;;;4.95;1.70;;;5.80;88.10;;;;;;5068001;28;20056;-67
2022/12/28 05:58:35;;;;;;;3.58;1.40;;;5.80;88.00;;;;;;5065867;28;20056;-68
2022/12/28 06:01:07;;;;;;;3.80;1.70;;;5.80;88.00;;;;;;5068686;28;20102;-67
2022/12/28 06:03:36;;;;;;;7.28;1.77;;;5.90;88.00;;;;;;5067521;28;20414;-65
2022/12/28 06:06:07;;;;;;;4.40;1.55;;;5.90;87.90;;;;;;5065607;28;20045;-66
2022/12/28 06:08:36;;;;;;;3.60;1.65;;;5.90;88.00;;;;;;5057365;28;20052;-67
2022/12/28 06:11:05;;;;;;;3.88;1.58;;;5.90;87.90;;;;;;5064682;28;20139;-67
2022/12/28 06:13:32;;;;;;;4.65;1.52;;;5.90;88.00;;;;;;5063520;28;20049;-65
2022/12/28 06:16:04;;;;;;;3.58;1.60;;;5.90;87.90;;;;;;5067810;28;20048;-66
2022/12/28 06:18:33;;;;;;;2.83;1.40;;;5.90;87.90;;;;;;5067077;28;20049;-67
2022/12/28 06:21:02;;;;;;;3.28;1.33;;;6.00;87.80;;;;;;5065900;28;20056;-66
2022/12/28 06:23:30;;;;;;;4.43;1.38;;;6.00;87.90;;;;;;5067130;28;20056;-66
2022/12/28 06:25:58;;;;;;;3.28;1.15;;;6.00;87.80;;;;;;5069585;28;20045;-66
2022/12/28 06:28:31;;;;;;;3.30;1.33;;;6.10;87.80;;;;;;5073302;28;20055;-67
2022/12/28 06:31:03;;;;;;;2.92;1.35;;;6.10;87.80;;;;;;5073981;28;20041;-67
2022/12/28 06:33:33;;;;;;;3.47;1.50;;;6.10;87.70;;;;;;5068461;28;20742;-65
2022/12/28 06:36:02;;;;;;;3.67;1.30;;;6.10;87.60;;;;;;5072424;28;20127;-67
2022/12/28 06:38:33;;;;;;;3.30;1.20;;;6.20;87.50;;;;;;5072082;28;20710;-65
2022/12/28 06:41:03;;;;;;;4.43;1.40;;;6.20;87.50;;;;;;5073311;28;20048;-66
2022/12/28 06:43:32;;;;;;;2.95;1.10;;;6.20;87.50;;;;;;5072830;28;20068;-64
2022/12/28 06:46:00;;;;;;;3.78;1.08;;;6.20;87.40;;;;;;5072518;28;20072;-69
2022/12/28 06:48:29;;;;;;;3.17;1.48;;;6.20;87.20;;;;;;5071502;28;20056;-67
2022/12/28 06:50:57;;;;;;;2.75;1.17;;;6.20;87.10;;;;;;5066633;28;21328;-67
2022/12/28 06:53:25;;;;;;;2.45;1.00;;;6.30;87.10;;;;;;5073196;28;20043;-68
2022/12/28 06:55:55;;;;;;;2.63;1.13;;;6.20;87.00;;;;;;5073928;28;20059;-68
2022/12/28 06:58:22;;;;;;;3.30;1.30;;;6.20;87.00;;;;;;5073922;28;20410;-67
2022/12/28 07:00:49;;;;;;;3.75;1.05;;;6.30;87.10;;;;;;5074468;28;20691;-68
2022/12/28 07:03:16;;;;;;;3.40;1.20;;;6.30;87.10;;;;;;5072311;28;20052;-67
2022/12/28 07:05:43;;;;;;;5.40;1.25;;;6.30;87.10;;;;;;5072251;28;20052;-68
2022/12/28 07:08:10;;;;;;;4.65;1.30;;;6.30;87.00;;;;;;5072402;28;20045;-70
2022/12/28 07:10:37;;;;;;;5.88;1.40;;;6.30;87.10;;;;;;5072501;28;20044;-64
2022/12/28 07:13:06;;;;;;;4.50;1.20;;;6.30;87.00;;;;;;5071360;28;20498;-63
2022/12/28 07:15:35;;;;;;;3.35;1.10;;;6.30;86.90;;;;;;5070735;28;20106;-63
2022/12/28 07:18:02;;;;;;;4.18;1.00;;;6.30;86.90;;;;;;5071632;28;20047;-65
2022/12/28 07:20:29;;;;;;;4.47;1.20;;;6.30;86.80;;;;;;5070672;28;20554;-64
2022/12/28 07:22:56;;;;;;;2.78;1.02;;;6.30;86.80;;;;;;5067636;28;20044;-64
2022/12/28 07:25:23;;;;;;;3.55;1.00;;;6.30;86.80;;;;;;5069468;28;20045;-64
2022/12/28 07:27:50;;;;;;;2.15;1.00;;;6.30;86.80;;;;;;5072879;28;20367;-65
2022/12/28 07:30:21;;;;;;;3.45;1.02;;;6.40;86.90;;;;;;5068606;28;20455;-67
2022/12/28 07:32:47;;;;;;;4.43;1.20;;;6.40;86.90;;;;;;5071549;28;20059;-67
2022/12/28 07:35:14;;;;;;;2.65;1.10;;;6.40;86.90;;;;;;5072294;28;20047;-68
2022/12/28 07:37:41;;;;;;;2.42;0.93;;;6.40;87.00;;;;;;5068804;28;20040;-69
2022/12/28 07:40:10;;;;;;;2.58;0.90;;;6.40;86.90;;;;;;5067630;28;20048;-68
2022/12/28 07:42:36;;;;;;;3.63;1.20;;;6.40;86.90;;;;;;5059947;28;20057;-68
2022/12/28 07:45:07;;;;;;;2.70;1.02;;;6.40;86.80;;;;;;5039310;28;20079;-68
2022/12/28 07:47:36;;;;;;;3.20;0.98;;;6.40;86.80;;;;;;5053447;28;20048;-59
2022/12/28 07:50:03;;;;;;;1.33;0.75;;;6.40;86.80;;;;;;5052707;28;20056;-60
2022/12/28 07:52:30;;;;;;;3.70;1.33;;;6.40;86.70;;;;;;5054909;28;20044;-66
2022/12/28 07:54:56;;;;;;;1.88;0.90;;;6.40;86.70;;;;;;5056283;28;20049;-66
2022/12/28 07:57:25;;;;;;;2.45;1.00;;;6.50;86.60;;;;;;5057941;28;20471;-67
2022/12/28 07:59:52;;;;;;;3.30;1.00;;;6.50;86.60;;;;;;5048152;28;20123;-66
2022/12/28 08:02:19;;;;;;;3.60;1.33;;;6.50;86.60;;;;;;5050354;28;20175;-59
2022/12/28 08:04:47;;;;;;;3.67;1.20;;;6.50;86.50;;;;;;5055830;28;20414;-58
2022/12/28 08:07:15;;;;;;;4.05;1.50;;;6.50;86.40;;;;;;5053435;28;20051;-61
2022/12/28 08:09:42;;;;;;;4.70;1.50;;;6.50;86.40;;;;;;5052441;28;20049;-59
2022/12/28 08:12:09;;;;;;;3.33;1.27;;;6.50;86.40;;;;;;5051319;28;20060;-64
2022/12/28 08:14:37;;;;;;;3.05;0.95;;;6.50;86.30;;;;;;5055319;28;20059;-62
2022/12/28 08:17:04;;;;;;;3.58;1.02;;;6.50;86.40;;;;;;5054391;28;20079;-68
2022/12/28 08:19:31;;;;;;;2.97;1.05;;;6.60;86.40;;;;;;5055137;28;20053;-68
2022/12/28 08:22:01;;;;;;;3.00;1.00;;;6.50;86.40;;;;;;5056167;28;20052;-68
2022/12/28 08:24:31;;;;;;;2.22;0.98;;;6.60;86.30;;;;;;5053714;28;20438;-68
2022/12/28 08:26:58;;;;;;;3.35;1.20;;;6.60;86.30;;;;;;5056682;28;20060;-67
2022/12/28 08:29:25;;;;;;;3.42;1.10;;;6.60;86.30;;;;;;5049177;28;20041;-67
2022/12/28 08:31:52;;;;;;;3.78;1.05;;;6.60;86.20;;;;;;5054971;28;20048;-68
2022/12/28 08:34:25;;;;;;;2.72;1.13;;;6.70;86.20;;;;;;5057287;28;20079;-67
2022/12/28 08:36:52;;;;;;;3.75;1.30;;;6.70;86.20;;;;;;5050200;28;20090;-68
2022/12/28 08:39:22;;;;;;;3.45;1.27;;;6.70;86.20;;;;;;5054598;28;20059;-67
2022/12/28 08:41:49;;;;;;;3.92;1.17;;;6.70;86.10;;;;;;5060371;28;20158;-60
2022/12/28 08:44:17;;;;;;;2.95;1.40;;;6.70;86.20;;;;;;5066708;28;20041;-60
2022/12/28 08:46:44;;;;;;;3.35;1.10;;;6.70;86.20;;;;;;5059178;28;20049;-57
2022/12/28 08:49:11;;;;;;;3.13;1.20;;;6.70;86.10;;;;;;5067295;28;20060;-57
2022/12/28 08:51:40;;;;;;;3.75;1.20;;;6.70;86.20;;;;;;5062548;28;20059;-58
2022/12/28 08:54:09;;;;;;;4.95;1.50;;;6.70;86.20;;;;;;5066942;28;20064;-59
2022/12/28 08:56:39;;;;;;;4.10;1.65;;;6.70;86.30;;;;;;5064966;28;20047;-58
2022/12/28 08:59:07;;;;;;;3.22;1.65;;;6.70;86.20;;;;;;5065987;28;20048;-58
2022/12/28 09:01:35;;;;;;;4.25;1.67;;;6.80;86.30;;;;;;5063161;28;20067;-59
2022/12/28 09:04:03;;;;;;;3.38;1.38;;;6.80;86.20;;;;;;5064887;28;20045;-59
2022/12/28 09:06:32;;;;;;;4.72;1.90;;;6.80;86.20;;;;;;5066811;28;20060;-60
2022/12/28 09:09:00;;;;;;;3.28;1.50;;;6.80;86.20;;;;;;5066413;28;20060;-60
2022/12/28 09:11:28;;;;;;;4.53;1.48;;;6.80;86.10;;;;;;5062936;28;20522;-57
2022/12/28 09:13:56;;;;;;;3.53;1.40;;;6.90;86.10;;;;;;5068094;28;20144;-58
2022/12/28 09:16:27;;;;;;;2.78;1.15;;;6.90;86.10;;;;;;5068039;28;20053;-58
2022/12/28 09:18:56;;;;;;;3.22;1.10;;;6.90;86.20;;;;;;5061669;28;20482;-58
2022/12/28 09:21:24;;;;;;;3.05;1.15;;;6.90;86.20;;;;;;5065779;28;20193;-61
2022/12/28 09:23:51;;;;;;;4.22;1.38;;;6.90;86.10;;;;;;5067744;28;20060;-60
2022/12/28 09:26:20;;;;;;;3.70;1.23;;;6.90;86.20;;;;;;5066343;28;20127;-60
2022/12/28 09:28:48;;;;;;;4.05;1.15;;;6.90;86.20;;;;;;5062589;28;20049;-61
2022/12/28 09:31:18;;;;;;;4.38;1.25;;;7.00;86.20;;;;;;5064022;28;20109;-61
2022/12/28 09:34:01;;;;;;;2.28;0.90;;;7.00;86.20;;;;;;5064513;28;20052;-61
2022/12/28 09:36:31;;;;;;;3.47;1.17;;;7.00;86.10;;;;;;5063816;28;20131;-61
2022/12/28 09:39:00;;;;;;;4.82;1.80;;;7.00;86.20;;;;;;5065558;28;20375;-59
2022/12/28 09:41:30;;;;;;;4.10;1.20;;;7.00;86.20;;;;;;5066086;28;20056;-61
2022/12/28 09:44:16;;;;;;;3.92;1.50;;;7.00;86.10;;;;;;5062577;28;20041;-62
2022/12/28 09:46:51;;;;;;;4.38;1.20;;;7.10;86.10;;;;;;5067027;28;20132;-61
2022/12/28 09:49:21;;;;;;;3.67;1.30;;;7.10;86.10;;;;;;5064820;28;20064;-60
2022/12/28 09:51:55;;;;;;;2.38;1.23;;;7.10;86.10;;;;;;5063262;28;20502;-60
2022/12/28 09:54:22;;;;;;;4.13;1.05;;;7.10;86.20;;;;;;5065552;28;20049;-58
2022/12/28 09:56:49;;;;;;;4.13;1.27;;;7.10;86.30;;;;;;5065870;28;20498;-59
2022/12/28 09:59:20;;;;;;;4.93;1.45;;;7.10;86.50;;;;;;5066230;28;20048;-59
2022/12/28 10:01:56;;;;;;;3.88;1.50;;;7.10;86.70;;;;;;5058299;28;20500;-60
2022/12/28 10:04:24;;;;;;;3.90;1.63;;;7.20;86.60;;;;;;5064850;28;20155;-60
2022/12/28 10:06:50;;;;;;;3.95;1.40;;;7.20;86.50;;;;;;5065340;28;20051;-60
2022/12/28 10:09:24;;;;;;;3.40;1.30;;;7.20;86.40;;;;;;5066989;28;20049;-59
2022/12/28 10:11:51;;;;;;;3.50;1.20;;;7.30;86.30;;;;;;5062460;28;20060;-68
2022/12/28 10:14:20;;;;;;;2.55;1.15;;;7.30;86.20;;;;;;5065881;28;20056;-68
2022/12/28 10:16:47;;;;;;;3.65;1.45;;;7.30;86.20;;;;;;5064389;28;20586;-69
2022/12/28 10:19:19;;;;;;;3.95;1.33;;;7.30;86.00;;;;;;5064024;28;20056;-70
2022/12/28 10:21:47;;;;;;;2.88;1.35;;;7.40;86.00;;;;;;5065954;28;20044;-63
2022/12/28 10:24:14;;;;;;;6.00;1.80;;;7.40;86.00;;;;;;5066713;28;20060;-63
2022/12/28 10:26:44;;;;;;;3.78;1.67;;;7.40;86.00;;;;;;5063219;28;20160;-64
2022/12/28 10:29:16;;;;;;;4.85;1.58;;;7.40;86.00;;;;;;5066112;28;20480;-64
2022/12/28 10:31:43;;;;;;;3.05;1.30;;;7.40;86.00;;;;;;5063957;28;20036;-64
2022/12/28 10:34:19;;;;;;;2.03;1.13;;;7.40;86.00;;;;;;5066145;28;20151;-65
2022/12/28 10:36:47;;;;;;;2.92;1.10;;;7.50;86.00;;;;;;5064772;28;20145;-65
2022/12/28 10:39:17;;;;;;;3.38;0.82;;;7.50;85.90;;;;;;5066404;28;20490;-63
2022/12/28 10:41:45;;;;;;;3.40;1.02;;;7.60;85.80;;;;;;5057182;28;20128;-58
2022/12/28 10:44:19;;;;;;;3.60;1.20;;;7.70;85.60;;;;;;5054384;28;20044;-58
2022/12/28 10:46:58;;;;;;;4.75;1.35;;;7.80;85.50;;;;;;5045325;28;20375;-58
2022/12/28 10:49:30;;;;;;;6.78;1.55;;;7.80;85.40;;;;;;5053936;28;20499;-58
2022/12/28 10:52:03;;;;;;;4.15;1.40;;;7.90;85.40;;;;;;5049150;28;20049;-58
2022/12/28 10:54:33;;;;;;;3.20;1.20;;;7.90;85.30;;;;;;5054420;28;20597;-59
2022/12/28 10:57:00;;;;;;;3.00;1.02;;;7.90;85.30;;;;;;5055554;28;20109;-58
2022/12/28 10:59:31;;;;;;;3.47;1.00;;;7.90;85.30;;;;;;5052268;28;20045;-59
2022/12/28 11:02:24;;;;;;;3.35;1.13;;;7.90;85.10;;;;;;5048227;28;20045;-60
2022/12/28 11:04:58;;;;;;;2.45;0.95;;;8.00;85.20;;;;;;5051595;28;20044;-61
2022/12/28 11:07:33;;;;;;;2.58;1.10;;;8.00;85.20;;;;;;5053685;28;20152;-61
2022/12/28 11:10:31;;;;;;;5.63;0.95;;;8.10;85.00;;;;;;5055329;28;20060;-60
2022/12/28 11:13:00;;;;;;;2.85;1.13;;;8.10;85.10;;;;;;4975311;28;20042;-60
2022/12/28 11:15:30;;;;;;;2.95;1.13;;;8.20;85.00;;;;;;5040685;28;20431;-61
2022/12/28 11:17:59;;;;;;;3.05;1.23;;;8.20;84.90;;;;;;5053575;28;20424;-61
2022/12/28 11:20:33;;;;;;;2.35;1.00;;;8.30;84.90;;;;;;5055724;28;20057;-58
2022/12/28 11:23:00;;;;;;;3.03;1.10;;;8.20;84.90;;;;;;5052248;28;20060;-59
2022/12/28 11:25:32;;;;;;;4.30;1.13;;;8.30;84.90;;;;;;5054532;28;20052;-59
2022/12/28 11:28:00;;;;;;;3.65;1.08;;;8.30;84.80;;;;;;5056160;28;20481;-58
2022/12/28 11:30:30;;;;;;;3.15;0.98;;;8.30;84.70;;;;;;5054641;28;20056;-56
2022/12/28 11:32:59;;;;;;;2.90;1.00;;;8.40;84.60;;;;;;5053653;28;20077;-58
2022/12/28 11:35:30;;;;;;;3.50;1.08;;;8.40;84.60;;;;;;5047189;28;20056;-58
2022/12/28 11:38:00;;;;;;;3.17;0.88;;;8.40;84.60;;;;;;5053010;28;20115;-58
2022/12/28 11:40:51;;;;;;;3.28;0.98;;;8.40;84.50;;;;;;5058256;28;20055;-59
2022/12/28 11:43:55;;;;;;;4.53;0.95;;;8.40;84.60;;;;;;5049191;28;20045;-57
2022/12/28 11:46:41;;;;;;;2.83;0.80;;;8.40;84.60;;;;;;5045176;28;20067;-58
2022/12/28 11:49:35;;;;;;;4.88;1.00;;;8.40;84.60;;;;;;5047547;28;20055;-58
2022/12/28 11:52:45;;;;;;;2.63;0.85;;;8.40;84.60;;;;;;5013177;28;20052;-68
2022/12/28 11:56:00;;;;;;;2.50;1.05;;;8.40;84.50;;;;;;5048129;28;20040;-67
2022/12/28 11:58:47;;;;;;;1.95;0.80;;;8.40;84.40;;;;;;5045092;28;20460;-67
2022/12/28 12:01:57;;;;;;;4.57;1.08;;;8.50;84.40;;;;;;5047415;28;20504;-68
2022/12/28 12:04:35;;;;;;;3.50;1.00;;;8.50;84.20;;;;;;5047633;28;20063;-67
2022/12/28 12:07:24;;;;;;;3.45;1.10;;;8.60;84.30;;;;;;5047414;28;20061;-68
2022/12/28 12:10:34;;;;;;;3.75;1.00;;;8.60;84.30;;;;;;5043829;28;20118;-67
2022/12/28 12:13:24;;;;;;;2.97;1.17;;;8.60;84.10;;;;;;5044430;28;20175;-68
2022/12/28 12:15:56;;;;;;;5.55;1.13;;;8.60;84.10;;;;;;5044105;28;20514;-68
2022/12/28 12:18:26;;;;;;;1.45;0.80;;;8.60;84.10;;;;;;5047173;28;20128;-67
2022/12/28 12:20:57;;;;;;;1.92;0.77;;;8.60;84.00;;;;;;5046324;28;20052;-64
2022/12/28 12:23:37;;;;;;;3.75;0.90;;;8.60;84.00;;;;;;5049750;28;20127;-63
2022/12/28 12:26:20;;;;;;;4.05;1.10;;;8.60;84.00;;;;;;5046521;28;20128;-64
2022/12/28 12:28:50;;;;;;;4.82;1.30;;;8.70;83.90;;;;;;5046664;28;20041;-64
2022/12/28 12:31:26;;;;;;;3.35;1.10;;;8.70;83.80;;;;;;5042060;28;20110;-68
2022/12/28 12:34:00;;;;;;;3.83;1.27;;;8.70;83.70;;;;;;5048885;28;20061;-67
2022/12/28 12:36:50;;;;;;;3.72;1.25;;;8.70;83.60;;;;;;5048639;28;20053;-69
2022/12/28 12:39:42;;;;;;;2.83;0.98;;;8.80;83.30;;;;;;5047880;28;20037;-68
2022/12/28 12:42:17;;;;;;;4.13;0.90;;;8.80;83.40;;;;;;5051803;28;20044;-68
2022/12/28 12:44:52;;;;;;;2.53;0.95;;;8.70;83.10;;;;;;5058017;28;20048;-69
2022/12/28 12:47:50;;;;;;;1.48;0.80;;;8.80;82.90;;;;;;5028845;28;20075;-66
2022/12/28 12:50:29;;;;;;;5.65;1.20;;;8.80;83.20;;;;;;5055548;28;20049;-69
2022/12/28 12:53:05;;;;;;;2.40;1.08;;;8.80;83.10;;;;;;5056253;28;20053;-68
2022/12/28 12:55:49;;;;;;;2.88;1.02;;;8.80;83.20;;;;;;5052768;28;20045;-67
2022/12/28 12:58:21;;;;;;;3.40;1.02;;;8.80;83.10;;;;;;5053811;28;20124;-68
2022/12/28 13:01:00;;;;;;;1.60;0.98;;;8.80;83.10;;;;;;5052488;28;20052;-69
2022/12/28 13:03:38;;;;;;;1.90;1.02;;;8.80;83.00;;;;;;5052394;28;20106;-66
2022/12/28 13:06:06;;;;;;;3.33;1.10;;;8.70;83.10;;;;;;5053659;28;20048;-68
2022/12/28 13:08:37;;;;;;;4.28;1.23;;;8.70;83.10;;;;;;5053578;28;20067;-67
2022/12/28 13:11:07;;;;;;;3.97;1.10;;;8.70;83.10;;;;;;5049931;28;20502;-67
2022/12/28 13:13:35;;;;;;;;;;;8.70;83.30;;;;;;5054554;28;20065;-69
2022/12/28 13:16:07;;;;;;;2.55;0.88;;;8.70;83.30;;;;;;5049289;28;20402;-58
2022/12/28 13:18:36;;;;;;;2.75;1.10;;;8.70;83.10;;;;;;5055466;28;20055;-57
2022/12/28 13:21:05;;;;;;;2.38;1.00;;;8.70;83.20;;;;;;5046552;28;20102;-58
2022/12/28 13:23:41;;;;;;;2.28;0.90;;;8.70;83.00;;;;;;5053773;28;20052;-57
2022/12/28 13:26:12;;;;;;;2.28;0.93;;;8.70;83.10;;;;;;5056239;28;20059;-68
2022/12/28 13:28:52;;;;;;;3.45;0.85;;;8.70;82.90;;;;;;5049136;28;20100;-68
2022/12/28 13:31:22;;;;;;;3.17;1.23;;;8.70;83.00;;;;;;5048431;28;20033;-67
2022/12/28 13:33:58;;;;;;;3.38;0.85;;;8.70;82.80;;;;;;5051038;28;20098;-68
2022/12/28 13:36:26;;;;;;;3.22;1.48;;;8.70;83.00;;;;;;5053481;28;20049;-68
2022/12/28 13:39:11;;;;;;;3.40;0.90;;;8.70;83.20;;;;;;5055501;28;20055;-68
2022/12/28 13:41:42;;;;;;;1.73;0.80;;;8.70;83.00;;;;;;5057299;28;20068;-60
2022/12/28 13:44:30;;;;;;;2.45;0.90;;;8.70;83.00;;;;;;5069095;28;20040;-60
2022/12/28 13:47:02;;;;;;;3.08;1.10;;;8.70;83.20;;;;;;5061491;28;20070;-60